createdAt,value
2017-11-19T00:00:52.661Z,9.80
2017-11-19T00:01:52.657Z,9.55
2017-11-19T00:02:52.645Z,9.85
2017-11-19T00:03:52.644Z,10.04
2017-11-19T00:04:52.633Z,11.32
2017-11-19T00:05:52.630Z,10.83
2017-11-19T00:06:52.616Z,10.40
2017-11-19T00:07:52.608Z,11.22
2017-11-19T00:08:52.599Z,11.11
2017-11-19T00:09:52.588Z,11.19
2017-11-19T00:10:52.577Z,11.82
2017-11-19T00:11:52.569Z,11.18
2017-11-19T00:12:52.561Z,11.02
2017-11-19T00:13:52.558Z,12.30
2017-11-19T00:14:52.545Z,12.43
2017-11-19T00:15:52.535Z,11.22
2017-11-19T00:16:52.528Z,12.20
2017-11-19T00:17:52.514Z,12.02
2017-11-19T00:18:52.505Z,11.69
2017-11-19T00:19:52.502Z,11.90
2017-11-19T00:20:52.489Z,12.08
2017-11-19T00:21:52.484Z,11.30
2017-11-19T00:22:52.478Z,11.66
2017-11-19T00:23:52.464Z,12.06
2017-11-19T00:24:52.464Z,12.34
2017-11-19T00:25:52.451Z,12.51
2017-11-19T00:26:52.448Z,12.92
2017-11-19T00:27:52.428Z,12.77
2017-11-19T00:28:52.416Z,13.19
2017-11-19T00:29:52.408Z,13.00
2017-11-19T00:30:52.402Z,12.03
2017-11-19T00:31:52.388Z,10.54
2017-11-19T00:32:52.386Z,10.12
2017-11-19T00:33:52.370Z,9.15
2017-11-19T00:34:52.367Z,9.32
2017-11-19T00:35:52.355Z,9.15
2017-11-19T00:36:52.354Z,9.87
2017-11-19T00:37:52.342Z,10.76
2017-11-19T00:38:52.328Z,11.31
2017-11-19T00:39:52.321Z,12.35
2017-11-19T00:40:52.330Z,12.60
2017-11-19T00:41:52.295Z,12.49
2017-11-19T00:42:52.299Z,12.00
2017-11-19T00:43:52.285Z,12.68
2017-11-19T00:44:52.281Z,13.96
2017-11-19T00:45:52.270Z,13.91
2017-11-19T00:46:52.269Z,13.36
2017-11-19T00:47:52.248Z,13.70
2017-11-19T00:48:52.237Z,14.47
2017-11-19T00:49:52.234Z,14.60
2017-11-19T00:50:52.233Z,14.41
2017-11-19T00:51:52.213Z,14.65
2017-11-19T00:52:52.210Z,14.42
2017-11-19T00:53:52.193Z,14.46
2017-11-19T00:54:52.188Z,14.38
2017-11-19T00:55:52.177Z,14.45
2017-11-19T00:56:52.177Z,14.34
2017-11-19T00:57:52.158Z,14.27
2017-11-19T00:58:52.150Z,14.10
2017-11-19T00:59:52.141Z,13.84
2017-11-19T01:00:52.148Z,14.44
2017-11-19T01:01:52.128Z,15.02
2017-11-19T01:02:52.127Z,14.58
2017-11-19T01:03:52.115Z,14.78
2017-11-19T01:04:52.126Z,15.22
2017-11-19T01:05:52.091Z,15.47
2017-11-19T01:06:52.084Z,15.64
2017-11-19T01:07:52.071Z,13.63
2017-11-19T01:08:52.064Z,10.73
2017-11-19T01:09:52.053Z,8.29
2017-11-19T01:10:52.050Z,8.10
2017-11-19T01:11:52.037Z,6.39
2017-11-19T01:12:52.026Z,4.52
2017-11-19T01:13:52.018Z,4.24
2017-11-19T01:14:52.010Z,4.44
2017-11-19T01:15:52.001Z,4.40
2017-11-19T01:16:52.000Z,4.57
2017-11-19T01:17:51.989Z,4.39
2017-11-19T01:18:51.969Z,4.34
2017-11-19T01:19:51.968Z,3.89
2017-11-19T01:20:51.957Z,3.65
2017-11-19T01:21:51.947Z,3.33
2017-11-19T01:22:51.939Z,3.57
2017-11-19T01:23:51.925Z,3.52
2017-11-19T01:24:51.913Z,3.26
2017-11-19T01:25:51.907Z,3.34
2017-11-19T01:26:51.897Z,2.98
2017-11-19T01:27:51.877Z,3.21
2017-11-19T01:28:51.879Z,3.18
2017-11-19T01:29:51.865Z,3.07
2017-11-19T01:30:51.854Z,3.30
2017-11-19T01:31:51.858Z,3.25
2017-11-19T01:32:51.846Z,3.23
2017-11-19T01:33:51.837Z,3.45
2017-11-19T01:34:51.823Z,3.72
2017-11-19T01:35:51.813Z,3.67
2017-11-19T01:36:51.803Z,3.60
2017-11-19T01:37:51.791Z,3.72
2017-11-19T01:38:51.793Z,3.98
2017-11-19T01:39:51.774Z,3.58
2017-11-19T01:40:51.775Z,4.02
2017-11-19T01:41:51.758Z,4.21
2017-11-19T01:42:51.746Z,4.06
2017-11-19T01:43:51.741Z,3.99
2017-11-19T01:44:51.730Z,4.10
2017-11-19T01:45:51.720Z,4.31
2017-11-19T01:46:51.713Z,4.00
2017-11-19T01:47:51.701Z,3.71
2017-11-19T01:48:51.689Z,3.68
2017-11-19T01:49:51.680Z,4.37
2017-11-19T01:50:51.669Z,3.93
2017-11-19T01:51:51.661Z,4.15
2017-11-19T01:52:51.648Z,4.02
2017-11-19T01:53:51.641Z,4.12
2017-11-19T01:54:51.634Z,4.77
2017-11-19T01:55:51.634Z,4.24
2017-11-19T01:56:51.614Z,4.54
2017-11-19T01:57:51.606Z,3.75
2017-11-19T01:58:51.601Z,3.76
2017-11-19T01:59:51.588Z,4.16
2017-11-19T02:00:51.582Z,4.00
2017-11-19T02:01:51.576Z,3.94
2017-11-19T02:02:51.557Z,4.02
2017-11-19T02:03:51.576Z,4.28
2017-11-19T02:04:51.542Z,3.71
2017-11-19T02:05:51.528Z,3.44
2017-11-19T02:06:51.523Z,3.68
2017-11-19T02:07:51.507Z,3.35
2017-11-19T02:08:51.503Z,3.52
2017-11-19T02:09:51.486Z,3.48
2017-11-19T02:10:51.481Z,3.62
2017-11-19T02:11:51.471Z,3.74
2017-11-19T02:12:51.471Z,3.50
2017-11-19T02:13:51.457Z,3.49
2017-11-19T02:14:51.453Z,3.38
2017-11-19T02:15:51.441Z,3.52
2017-11-19T02:16:51.428Z,3.66
2017-11-19T02:17:51.441Z,3.40
2017-11-19T02:18:51.407Z,3.67
2017-11-19T02:19:51.398Z,3.58
2017-11-19T02:20:51.387Z,3.35
2017-11-19T02:21:51.384Z,3.03
2017-11-19T02:22:51.367Z,3.34
2017-11-19T02:23:51.358Z,3.45
2017-11-19T02:24:51.348Z,3.15
2017-11-19T02:25:51.341Z,3.23
2017-11-19T02:26:51.331Z,3.21
2017-11-19T02:27:51.322Z,3.35
2017-11-19T02:28:51.321Z,2.90
2017-11-19T02:29:51.304Z,2.98
2017-11-19T02:30:51.311Z,3.36
2017-11-19T02:31:51.287Z,3.32
2017-11-19T02:32:51.278Z,3.31
2017-11-19T02:33:51.268Z,3.63
2017-11-19T02:34:51.270Z,3.26
2017-11-19T02:35:51.240Z,3.67
2017-11-19T02:36:51.252Z,3.60
2017-11-19T02:37:51.228Z,3.37
2017-11-19T02:38:51.220Z,3.64
2017-11-19T02:39:51.206Z,3.67
2017-11-19T02:40:51.199Z,3.91
2017-11-19T02:41:51.196Z,3.79
2017-11-19T02:42:51.181Z,3.92
2017-11-19T02:43:51.180Z,4.42
2017-11-19T02:44:51.164Z,4.37
2017-11-19T02:45:51.165Z,4.78
2017-11-19T02:46:52.724Z,4.52
2017-11-19T02:47:51.136Z,4.51
2017-11-19T02:48:51.125Z,4.34
2017-11-19T02:49:51.117Z,4.47
2017-11-19T02:50:51.106Z,5.79
2017-11-19T02:51:51.093Z,6.08
2017-11-19T02:52:51.083Z,5.95
2017-11-19T02:53:51.074Z,5.75
2017-11-19T02:54:51.070Z,5.44
2017-11-19T02:55:51.063Z,6.29
2017-11-19T02:56:51.048Z,6.68
2017-11-19T02:57:51.035Z,6.79
2017-11-19T02:58:51.028Z,6.69
2017-11-19T02:59:51.022Z,6.58
2017-11-19T03:00:51.012Z,6.63
2017-11-19T03:01:51.003Z,6.25
2017-11-19T03:02:50.992Z,6.30
2017-11-19T03:03:50.977Z,6.72
2017-11-19T03:04:50.975Z,6.37
2017-11-19T03:05:50.959Z,6.52
2017-11-19T03:06:50.964Z,6.33
2017-11-19T03:07:50.943Z,6.49
2017-11-19T03:08:50.925Z,6.96
2017-11-19T03:09:50.922Z,7.16
2017-11-19T03:10:50.915Z,7.25
2017-11-19T03:11:50.905Z,6.58
2017-11-19T03:12:50.896Z,6.33
2017-11-19T03:13:50.888Z,6.76
2017-11-19T03:14:50.872Z,6.67
2017-11-19T03:15:50.866Z,7.16
2017-11-19T03:16:50.858Z,6.97
2017-11-19T03:17:50.853Z,6.78
2017-11-19T03:18:50.843Z,7.28
2017-11-19T03:19:50.840Z,7.31
2017-11-19T03:20:50.833Z,7.16
2017-11-19T03:21:50.814Z,7.36
2017-11-19T03:22:50.804Z,7.44
2017-11-19T03:23:50.786Z,7.38
2017-11-19T03:24:50.781Z,7.28
2017-11-19T03:25:50.785Z,7.66
2017-11-19T03:26:50.761Z,7.53
2017-11-19T03:27:50.758Z,7.90
2017-11-19T03:28:50.749Z,7.68
2017-11-19T03:29:50.734Z,7.66
2017-11-19T03:30:50.718Z,7.74
2017-11-19T03:31:50.721Z,8.16
2017-11-19T03:32:50.710Z,7.92
2017-11-19T03:33:50.701Z,8.54
2017-11-19T03:34:50.696Z,8.00
2017-11-19T03:35:50.691Z,8.33
2017-11-19T03:36:50.668Z,9.11
2017-11-19T03:37:50.656Z,8.30
2017-11-19T03:38:50.649Z,8.64
2017-11-19T03:39:50.639Z,8.20
2017-11-19T03:40:50.629Z,8.27
2017-11-19T03:41:50.623Z,8.80
2017-11-19T03:42:50.608Z,8.14
2017-11-19T03:43:50.597Z,7.94
2017-11-19T03:44:50.589Z,8.02
2017-11-19T03:45:50.581Z,7.75
2017-11-19T03:46:50.574Z,8.04
2017-11-19T03:47:50.560Z,7.93
2017-11-19T03:48:50.550Z,7.98
2017-11-19T03:49:50.542Z,8.98
2017-11-19T03:50:50.535Z,7.72
2017-11-19T03:51:50.524Z,8.37
2017-11-19T03:52:50.514Z,8.72
2017-11-19T03:53:50.502Z,7.92
2017-11-19T03:54:50.493Z,8.15
2017-11-19T03:55:50.486Z,7.96
2017-11-19T03:56:50.478Z,8.76
2017-11-19T03:57:50.471Z,8.96
2017-11-19T03:58:50.471Z,9.02
2017-11-19T03:59:50.449Z,9.61
2017-11-19T04:00:50.439Z,9.34
2017-11-19T04:01:50.426Z,9.55
2017-11-19T04:02:50.420Z,9.32
2017-11-19T04:03:50.404Z,9.59
2017-11-19T04:04:50.395Z,9.98
2017-11-19T04:05:50.380Z,9.67
2017-11-19T04:06:50.376Z,9.53
2017-11-19T04:07:50.362Z,9.78
2017-11-19T04:08:50.357Z,9.87
2017-11-19T04:09:50.345Z,9.73
2017-11-19T04:10:50.337Z,9.99
2017-11-19T04:11:50.332Z,10.10
2017-11-19T04:12:50.328Z,9.72
2017-11-19T04:13:50.306Z,10.52
2017-11-19T04:14:50.303Z,10.61
2017-11-19T04:15:50.291Z,10.54
2017-11-19T04:16:50.280Z,10.98
2017-11-19T04:17:50.272Z,11.41
2017-11-19T04:18:50.257Z,11.37
2017-11-19T04:19:50.246Z,11.84
2017-11-19T04:20:50.239Z,11.79
2017-11-19T04:21:50.227Z,12.19
2017-11-19T04:22:50.233Z,13.04
2017-11-19T04:23:50.207Z,12.72
2017-11-19T04:24:50.201Z,13.09
2017-11-19T04:25:50.186Z,13.43
2017-11-19T04:26:50.180Z,13.22
2017-11-19T04:27:50.169Z,13.14
2017-11-19T04:28:50.159Z,13.81
2017-11-19T04:29:50.149Z,13.47
2017-11-19T04:30:50.145Z,13.59
2017-11-19T04:31:50.126Z,13.95
2017-11-19T04:32:50.117Z,14.23
2017-11-19T04:33:50.109Z,14.74
2017-11-19T04:34:50.101Z,15.39
2017-11-19T04:35:50.083Z,15.59
2017-11-19T04:36:50.077Z,15.90
2017-11-19T04:37:50.060Z,17.15
2017-11-19T04:38:50.058Z,17.04
2017-11-19T04:39:50.051Z,17.12
2017-11-19T04:40:50.038Z,16.92
2017-11-19T04:41:50.027Z,17.77
2017-11-19T04:42:50.015Z,17.83
2017-11-19T04:43:50.009Z,17.20
2017-11-19T04:44:50.001Z,18.21
2017-11-19T04:45:49.991Z,18.36
2017-11-19T04:46:49.994Z,18.28
2017-11-19T04:47:49.972Z,17.83
2017-11-19T04:48:49.966Z,16.85
2017-11-19T04:49:49.941Z,16.88
2017-11-19T04:50:49.939Z,17.43
2017-11-19T04:51:49.925Z,17.59
2017-11-19T04:52:49.918Z,17.42
2017-11-19T04:53:49.939Z,17.34
2017-11-19T04:54:49.896Z,17.43
2017-11-19T04:55:49.883Z,16.46
2017-11-19T04:56:49.891Z,16.22
2017-11-19T04:57:49.876Z,15.86
2017-11-19T04:58:49.859Z,15.18
2017-11-19T04:59:49.845Z,14.90
2017-11-19T05:00:49.838Z,14.22
2017-11-19T05:01:49.822Z,14.19
2017-11-19T05:02:49.814Z,14.05
2017-11-19T05:03:49.807Z,13.86
2017-11-19T05:04:49.797Z,13.26
2017-11-19T05:05:49.783Z,12.66
2017-11-19T05:06:49.777Z,12.17
2017-11-19T05:07:49.764Z,11.71
2017-11-19T05:08:49.761Z,11.74
2017-11-19T05:09:49.751Z,11.32
2017-11-19T05:10:49.733Z,11.23
2017-11-19T05:11:49.723Z,10.72
2017-11-19T05:12:49.715Z,10.40
2017-11-19T05:13:49.697Z,10.83
2017-11-19T05:14:49.693Z,10.81
2017-11-19T05:15:49.682Z,10.18
2017-11-19T05:16:49.671Z,10.50
2017-11-19T05:17:49.675Z,10.42
2017-11-19T05:18:49.651Z,10.00
2017-11-19T05:19:49.641Z,9.71
2017-11-19T05:20:49.624Z,9.44
2017-11-19T05:21:49.616Z,9.60
2017-11-19T05:22:49.613Z,9.73
2017-11-19T05:23:49.602Z,8.85
2017-11-19T05:24:49.594Z,9.26
2017-11-19T05:25:49.577Z,9.25
2017-11-19T05:26:49.564Z,9.47
2017-11-19T05:27:49.562Z,9.30
2017-11-19T05:28:49.549Z,8.96
2017-11-19T05:29:49.543Z,9.19
2017-11-19T05:30:49.531Z,8.74
2017-11-19T05:31:49.520Z,8.77
2017-11-19T05:32:49.506Z,8.66
2017-11-19T05:33:49.539Z,8.30
2017-11-19T05:34:49.491Z,9.11
2017-11-19T05:35:49.487Z,8.91
2017-11-19T05:36:49.472Z,8.30
2017-11-19T05:37:49.456Z,7.83
2017-11-19T05:38:49.450Z,8.56
2017-11-19T05:39:49.440Z,8.20
2017-11-19T05:40:49.430Z,7.81
2017-11-19T05:41:49.431Z,7.70
2017-11-19T05:42:49.438Z,7.55
2017-11-19T05:43:49.399Z,7.53
2017-11-19T05:44:49.389Z,7.15
2017-11-19T05:45:49.383Z,6.32
2017-11-19T05:46:49.370Z,6.81
2017-11-19T05:47:49.356Z,6.99
2017-11-19T05:48:49.351Z,6.72
2017-11-19T05:49:49.335Z,6.95
2017-11-19T05:50:49.328Z,6.56
2017-11-19T05:51:49.321Z,6.59
2017-11-19T05:52:49.304Z,6.21
2017-11-19T05:53:49.298Z,6.51
2017-11-19T05:54:49.799Z,6.29
2017-11-19T05:55:49.276Z,5.90
2017-11-19T05:56:49.267Z,6.42
2017-11-19T05:57:49.260Z,6.29
2017-11-19T05:58:49.250Z,6.48
2017-11-19T05:59:49.240Z,5.83
2017-11-19T06:00:49.223Z,6.52
2017-11-19T06:01:49.218Z,6.72
2017-11-19T06:02:49.199Z,6.39
2017-11-19T06:03:49.196Z,6.18
2017-11-19T06:04:49.185Z,6.80
2017-11-19T06:05:49.171Z,6.24
2017-11-19T06:06:49.169Z,6.16
2017-11-19T06:07:49.153Z,6.19
2017-11-19T06:08:49.139Z,6.65
2017-11-19T06:09:49.136Z,6.49
2017-11-19T06:10:49.121Z,6.40
2017-11-19T06:11:49.112Z,5.93
2017-11-19T06:12:49.110Z,5.87
2017-11-19T06:13:49.089Z,6.10
2017-11-19T06:14:49.081Z,6.37
2017-11-19T06:15:49.065Z,6.17
2017-11-19T06:16:49.058Z,6.30
2017-11-19T06:17:49.048Z,6.42
2017-11-19T06:18:49.035Z,6.44
2017-11-19T06:19:49.025Z,6.41
2017-11-19T06:20:49.025Z,6.22
2017-11-19T06:21:49.010Z,5.70
2017-11-19T06:22:49.006Z,5.66
2017-11-19T06:23:48.984Z,5.60
2017-11-19T06:24:48.976Z,5.74
2017-11-19T06:25:48.967Z,5.52
2017-11-19T06:26:48.955Z,5.30
2017-11-19T06:27:48.941Z,5.12
2017-11-19T06:28:48.929Z,5.18
2017-11-19T06:29:48.918Z,5.22
2017-11-19T06:30:48.912Z,5.31
2017-11-19T06:31:48.898Z,5.28
2017-11-19T06:32:48.892Z,5.36
2017-11-19T06:33:48.878Z,5.54
2017-11-19T06:34:48.883Z,6.38
2017-11-19T06:35:48.863Z,5.47
2017-11-19T06:36:48.856Z,5.64
2017-11-19T06:37:48.837Z,5.31
2017-11-19T06:38:48.827Z,5.46
2017-11-19T06:39:48.820Z,5.37
2017-11-19T06:40:48.812Z,5.56
2017-11-19T06:41:48.813Z,5.45
2017-11-19T06:42:48.792Z,5.76
2017-11-19T06:43:48.779Z,5.83
2017-11-19T06:44:48.771Z,5.74
2017-11-19T06:45:48.758Z,5.74
2017-11-19T06:46:48.750Z,5.72
2017-11-19T06:47:48.743Z,5.55
2017-11-19T06:48:48.729Z,5.29
2017-11-19T06:49:48.717Z,5.61
2017-11-19T06:50:48.727Z,5.77
2017-11-19T06:51:48.698Z,5.76
2017-11-19T06:52:48.692Z,6.09
2017-11-19T06:53:49.317Z,5.49
2017-11-19T06:54:48.676Z,5.50
2017-11-19T06:55:48.660Z,5.62
2017-11-19T06:56:48.657Z,5.50
2017-11-19T06:57:48.648Z,5.52
2017-11-19T06:58:48.638Z,5.36
2017-11-19T06:59:48.621Z,5.60
2017-11-19T07:00:48.612Z,5.43
2017-11-19T07:01:48.592Z,5.59
2017-11-19T07:02:48.585Z,5.66
2017-11-19T07:03:48.582Z,5.05
2017-11-19T07:04:48.576Z,5.48
2017-11-19T07:05:48.571Z,5.28
2017-11-19T07:06:48.563Z,5.10
2017-11-19T07:07:48.540Z,5.12
2017-11-19T07:08:48.529Z,5.49
2017-11-19T07:09:48.524Z,5.46
2017-11-19T07:10:48.514Z,5.41
2017-11-19T07:11:48.502Z,5.26
2017-11-19T07:12:48.492Z,5.35
2017-11-19T07:13:48.494Z,5.22
2017-11-19T07:14:48.480Z,5.32
2017-11-19T07:15:48.469Z,5.06
2017-11-19T07:16:48.465Z,5.39
2017-11-19T07:17:48.444Z,4.99
2017-11-19T07:18:48.445Z,4.92
2017-11-19T07:19:48.436Z,5.03
2017-11-19T07:20:48.420Z,4.92
2017-11-19T07:21:48.413Z,4.70
2017-11-19T07:22:48.398Z,4.55
2017-11-19T07:23:48.389Z,5.10
2017-11-19T07:24:48.374Z,4.66
2017-11-19T07:25:48.380Z,4.64
2017-11-19T07:26:48.356Z,4.68
2017-11-19T07:27:48.354Z,5.06
2017-11-19T07:28:48.338Z,4.44
2017-11-19T07:29:48.333Z,4.58
2017-11-19T07:30:48.825Z,4.17
2017-11-19T07:31:48.310Z,4.10
2017-11-19T07:32:48.303Z,4.45
2017-11-19T07:33:48.294Z,4.51
2017-11-19T07:34:48.286Z,4.24
2017-11-19T07:35:48.269Z,4.59
2017-11-19T07:36:48.330Z,3.94
2017-11-19T07:37:48.254Z,4.33
2017-11-19T07:38:48.241Z,4.42
2017-11-19T07:39:48.237Z,3.94
2017-11-19T07:40:48.228Z,4.16
2017-11-19T07:41:48.220Z,4.09
2017-11-19T07:42:48.208Z,3.95
2017-11-19T07:43:48.195Z,4.20
2017-11-19T07:44:48.184Z,4.05
2017-11-19T07:45:48.191Z,3.81
2017-11-19T07:46:48.164Z,4.02
2017-11-19T07:47:48.162Z,4.37
2017-11-19T07:48:48.162Z,3.74
2017-11-19T07:49:48.142Z,3.51
2017-11-19T07:50:48.132Z,3.18
2017-11-19T07:51:48.139Z,3.78
2017-11-19T07:52:48.115Z,3.69
2017-11-19T07:53:48.110Z,3.60
2017-11-19T07:54:48.096Z,3.50
2017-11-19T07:55:48.083Z,3.66
2017-11-19T07:56:48.078Z,3.83
2017-11-19T07:57:48.063Z,3.56
2017-11-19T07:58:48.055Z,3.87
2017-11-19T07:59:48.044Z,4.15
2017-11-19T08:00:48.025Z,3.52
2017-11-19T08:01:48.026Z,3.23
2017-11-19T08:02:48.018Z,3.38
2017-11-19T08:03:48.007Z,3.38
2017-11-19T08:04:48.000Z,3.55
2017-11-19T08:05:48.496Z,3.39
2017-11-19T08:06:47.981Z,3.33
2017-11-19T08:07:47.978Z,3.30
2017-11-19T08:08:47.960Z,3.60
2017-11-19T08:09:47.954Z,3.34
2017-11-19T08:10:47.951Z,3.24
2017-11-19T08:11:48.838Z,3.00
2017-11-19T08:12:47.930Z,3.10
2017-11-19T08:13:48.522Z,3.15
2017-11-19T08:14:47.914Z,3.20
2017-11-19T08:15:47.902Z,3.23
2017-11-19T08:16:47.894Z,3.41
2017-11-19T08:17:47.884Z,2.99
2017-11-19T08:18:47.879Z,3.36
2017-11-19T08:19:47.861Z,3.06
2017-11-19T08:20:47.854Z,3.26
2017-11-19T08:21:47.859Z,2.86
2017-11-19T08:22:47.834Z,2.66
2017-11-19T08:23:47.856Z,3.52
2017-11-19T08:24:47.821Z,3.26
2017-11-19T08:25:47.810Z,3.16
2017-11-19T08:26:47.798Z,3.40
2017-11-19T08:27:47.807Z,3.19
2017-11-19T08:28:47.782Z,2.95
2017-11-19T08:29:47.776Z,3.12
2017-11-19T08:30:50.384Z,3.09
2017-11-19T08:31:48.871Z,3.51
2017-11-19T08:32:47.747Z,3.24
2017-11-19T08:33:47.734Z,3.22
2017-11-19T08:34:47.728Z,3.28
2017-11-19T08:35:47.719Z,3.22
2017-11-19T08:36:47.701Z,3.23
2017-11-19T08:37:47.691Z,2.90
2017-11-19T08:38:47.691Z,2.88
2017-11-19T08:39:47.680Z,3.37
2017-11-19T08:40:47.672Z,2.85
2017-11-19T08:41:47.661Z,2.89
2017-11-19T08:42:47.658Z,3.51
2017-11-19T08:43:47.686Z,3.48
2017-11-19T08:44:49.394Z,3.10
2017-11-19T08:45:48.613Z,2.96
2017-11-19T08:46:47.686Z,3.29
2017-11-19T08:47:47.612Z,2.93
2017-11-19T08:48:47.602Z,2.95
2017-11-19T08:49:47.588Z,2.98
2017-11-19T08:50:47.588Z,2.69
2017-11-19T08:51:47.574Z,2.73
2017-11-19T08:52:47.576Z,2.67
2017-11-19T08:53:47.559Z,3.12
2017-11-19T08:54:47.547Z,3.36
2017-11-19T08:55:47.534Z,3.26
2017-11-19T08:56:47.527Z,2.74
2017-11-19T08:57:47.522Z,2.84
2017-11-19T08:58:47.509Z,2.98
2017-11-19T08:59:47.508Z,2.90
2017-11-19T09:00:47.492Z,3.46
2017-11-19T09:01:47.480Z,2.85
2017-11-19T09:02:47.482Z,3.13
2017-11-19T09:03:47.466Z,2.80
2017-11-19T09:04:47.461Z,3.08
2017-11-19T09:05:47.453Z,2.96
2017-11-19T09:06:47.446Z,3.16
2017-11-19T09:07:47.429Z,3.02
2017-11-19T09:08:47.424Z,3.30
2017-11-19T09:09:47.418Z,2.95
2017-11-19T09:10:47.403Z,3.09
2017-11-19T09:11:47.395Z,3.35
2017-11-19T09:12:47.391Z,2.99
2017-11-19T09:13:47.393Z,2.92
2017-11-19T09:14:47.374Z,2.84
2017-11-19T09:15:47.375Z,3.25
2017-11-19T09:16:47.366Z,3.04
2017-11-19T09:17:47.343Z,3.09
2017-11-19T09:18:47.332Z,2.79
2017-11-19T09:19:47.323Z,3.52
2017-11-19T09:20:47.315Z,3.39
2017-11-19T09:21:47.305Z,3.58
2017-11-19T09:22:47.298Z,3.66
2017-11-19T09:23:47.294Z,3.13
2017-11-19T09:24:47.278Z,2.98
2017-11-19T09:25:47.266Z,3.22
2017-11-19T09:26:47.283Z,3.19
2017-11-19T09:27:47.263Z,3.48
2017-11-19T09:28:47.243Z,3.36
2017-11-19T09:29:47.243Z,3.84
2017-11-19T09:30:47.230Z,3.87
2017-11-19T09:31:47.216Z,3.82
2017-11-19T09:32:47.207Z,4.19
2017-11-19T09:33:47.215Z,3.94
2017-11-19T09:34:47.195Z,3.73
2017-11-19T09:35:47.185Z,3.93
2017-11-19T09:36:47.166Z,3.86
2017-11-19T09:37:47.179Z,3.83
2017-11-19T09:38:47.154Z,3.93
2017-11-19T09:39:47.150Z,3.93
2017-11-19T09:40:47.147Z,3.90
2017-11-19T09:41:47.124Z,3.70
2017-11-19T09:42:47.119Z,4.01
2017-11-19T09:43:47.119Z,3.52
2017-11-19T09:44:47.127Z,3.49
2017-11-19T09:45:47.089Z,4.25
2017-11-19T09:46:47.090Z,4.16
2017-11-19T09:47:47.073Z,3.95
2017-11-19T09:48:47.869Z,3.34
2017-11-19T09:49:47.052Z,3.73
2017-11-19T09:50:47.045Z,3.18
2017-11-19T09:51:47.032Z,3.07
2017-11-19T09:52:47.032Z,3.36
2017-11-19T09:53:47.018Z,3.53
2017-11-19T09:54:47.009Z,2.90
2017-11-19T09:55:47.005Z,2.68
2017-11-19T09:56:47.006Z,3.14
2017-11-19T09:57:46.985Z,3.24
2017-11-19T09:58:46.993Z,3.41
2017-11-19T09:59:46.962Z,2.95
2017-11-19T10:00:46.970Z,2.76
2017-11-19T10:01:46.950Z,2.77
2017-11-19T10:02:46.937Z,2.94
2017-11-19T10:03:46.934Z,2.93
2017-11-19T10:04:46.921Z,2.94
2017-11-19T10:05:47.873Z,2.54
2017-11-19T10:06:47.883Z,2.92
2017-11-19T10:07:46.901Z,3.13
2017-11-19T10:08:46.888Z,3.26
2017-11-19T10:09:46.873Z,3.08
2017-11-19T10:10:46.868Z,2.83
2017-11-19T10:11:46.861Z,2.95
2017-11-19T10:12:46.853Z,3.08
2017-11-19T10:13:46.850Z,3.24
2017-11-19T10:14:46.836Z,3.42
2017-11-19T10:15:46.826Z,2.98
2017-11-19T10:16:46.813Z,2.77
2017-11-19T10:17:46.810Z,2.78
2017-11-19T10:18:46.808Z,2.86
2017-11-19T10:19:46.795Z,2.48
2017-11-19T10:20:46.785Z,3.33
2017-11-19T10:21:46.774Z,2.96
2017-11-19T10:22:46.769Z,3.15
2017-11-19T10:23:46.767Z,3.23
2017-11-19T10:24:47.403Z,2.43
2017-11-19T10:25:46.742Z,2.72
2017-11-19T10:26:46.734Z,2.64
2017-11-19T10:27:46.920Z,3.03
2017-11-19T10:28:46.712Z,2.77
2017-11-19T10:29:46.704Z,3.19
2017-11-19T10:30:46.705Z,2.77
2017-11-19T10:31:46.683Z,2.83
2017-11-19T10:32:46.677Z,2.83
2017-11-19T10:33:47.064Z,2.83
2017-11-19T10:34:46.662Z,2.58
2017-11-19T10:35:46.652Z,2.85
2017-11-19T10:36:46.650Z,2.82
2017-11-19T10:37:46.652Z,2.90
2017-11-19T10:38:46.640Z,3.24
2017-11-19T10:39:46.976Z,3.14
2017-11-19T10:39:58.827Z,0.13
2017-11-19T10:41:46.610Z,2.81
2017-11-19T10:42:46.591Z,2.83
2017-11-19T10:43:46.591Z,2.64
2017-11-19T10:44:46.580Z,2.77
2017-11-19T10:45:46.886Z,3.04
2017-11-19T10:46:46.562Z,3.05
2017-11-19T10:47:46.556Z,3.43
2017-11-19T10:48:46.549Z,3.54
2017-11-19T10:49:46.542Z,3.32
2017-11-19T10:50:46.536Z,3.44
2017-11-19T10:51:46.534Z,2.96
2017-11-19T10:52:46.515Z,3.18
2017-11-19T10:53:46.513Z,3.24
2017-11-19T10:54:46.537Z,3.04
2017-11-19T10:55:46.495Z,3.02
2017-11-19T10:56:46.488Z,2.67
2017-11-19T10:57:46.645Z,3.00
2017-11-19T10:58:46.466Z,3.27
2017-11-19T10:59:46.457Z,2.85
2017-11-19T11:00:46.464Z,2.95
2017-11-19T11:01:46.442Z,2.90
2017-11-19T11:02:46.437Z,2.84
2017-11-19T11:03:47.401Z,2.88
2017-11-19T11:04:46.427Z,3.06
2017-11-19T11:05:46.412Z,3.05
2017-11-19T11:06:46.443Z,3.03
2017-11-19T11:07:46.416Z,3.46
2017-11-19T11:07:58.403Z,0.13
2017-11-19T11:09:46.388Z,2.76
2017-11-19T11:10:46.380Z,3.25
2017-11-19T11:11:46.370Z,2.82
2017-11-19T11:12:46.908Z,3.17
2017-11-19T11:13:46.351Z,3.24
2017-11-19T11:14:46.353Z,3.17
2017-11-19T11:15:46.341Z,3.50
2017-11-19T11:16:46.327Z,3.40
2017-11-19T11:17:46.324Z,3.65
2017-11-19T11:18:46.318Z,3.56
2017-11-19T11:19:46.314Z,3.24
2017-11-19T11:20:46.305Z,3.04
2017-11-19T11:21:46.291Z,3.42
2017-11-19T11:22:46.303Z,3.40
2017-11-19T11:23:46.281Z,3.35
2017-11-19T11:24:46.274Z,3.38
2017-11-19T11:25:46.273Z,3.93
2017-11-19T11:26:46.274Z,3.50
2017-11-19T11:27:46.253Z,3.71
2017-11-19T11:28:46.244Z,3.58
2017-11-19T11:29:46.233Z,3.32
2017-11-19T11:30:46.223Z,3.37
2017-11-19T11:31:46.221Z,3.42
2017-11-19T11:32:46.209Z,3.78
2017-11-19T11:33:46.202Z,3.22
2017-11-19T11:34:46.270Z,3.54
2017-11-19T11:35:46.185Z,3.18
2017-11-19T11:36:46.212Z,3.45
2017-11-19T11:37:46.171Z,3.51
2017-11-19T11:38:46.167Z,3.42
2017-11-19T11:39:46.157Z,3.50
2017-11-19T11:40:46.154Z,3.46
2017-11-19T11:41:46.137Z,3.10
2017-11-19T11:42:46.740Z,3.56
2017-11-19T11:43:46.131Z,3.64
2017-11-19T11:44:46.114Z,3.41
2017-11-19T11:45:46.108Z,3.50
2017-11-19T11:46:46.118Z,3.64
2017-11-19T11:47:46.091Z,4.18
2017-11-19T11:48:46.084Z,3.92
2017-11-19T11:49:46.078Z,3.90
2017-11-19T11:50:46.066Z,3.59
2017-11-19T11:51:46.063Z,3.58
2017-11-19T11:52:46.053Z,3.62
2017-11-19T11:53:46.051Z,3.60
2017-11-19T11:54:46.037Z,3.60
2017-11-19T11:55:46.031Z,3.18
2017-11-19T11:56:46.026Z,3.27
2017-11-19T11:57:46.020Z,3.93
2017-11-19T11:58:46.009Z,3.93
2017-11-19T11:59:46.007Z,3.96
2017-11-19T12:00:45.998Z,3.17
2017-11-19T12:01:45.991Z,3.39
2017-11-19T12:02:45.972Z,3.60
2017-11-19T12:03:45.971Z,3.10
2017-11-19T12:04:45.960Z,3.40
2017-11-19T12:05:45.955Z,3.77
2017-11-19T12:06:45.953Z,4.31
2017-11-19T12:07:45.939Z,3.63
2017-11-19T12:08:45.933Z,3.71
2017-11-19T12:09:45.920Z,4.09
2017-11-19T12:10:45.919Z,3.56
2017-11-19T12:11:45.917Z,3.67
2017-11-19T12:12:45.909Z,3.83
2017-11-19T12:13:45.905Z,3.88
2017-11-19T12:14:45.892Z,3.65
2017-11-19T12:15:45.883Z,3.36
2017-11-19T12:16:45.874Z,3.40
2017-11-19T12:17:45.874Z,3.62
2017-11-19T12:18:45.861Z,4.04
2017-11-19T12:19:45.849Z,3.74
2017-11-19T12:20:45.843Z,3.78
2017-11-19T12:21:45.835Z,3.51
2017-11-19T12:22:45.835Z,3.69
2017-11-19T12:23:45.819Z,3.86
2017-11-19T12:24:45.820Z,3.98
2017-11-19T12:25:45.810Z,3.72
2017-11-19T12:26:45.803Z,3.92
2017-11-19T12:27:45.788Z,3.82
2017-11-19T12:28:45.789Z,3.82
2017-11-19T12:29:45.778Z,3.36
2017-11-19T12:30:45.760Z,3.52
2017-11-19T12:31:45.760Z,3.59
2017-11-19T12:32:45.763Z,3.94
2017-11-19T12:33:45.745Z,3.86
2017-11-19T12:34:45.764Z,3.89
2017-11-19T12:35:45.745Z,3.77
2017-11-19T12:36:45.732Z,3.58
2017-11-19T12:37:45.721Z,3.83
2017-11-19T12:38:45.712Z,3.65
2017-11-19T12:39:45.706Z,3.54
2017-11-19T12:40:45.696Z,3.75
2017-11-19T12:41:45.691Z,3.40
2017-11-19T12:42:45.679Z,3.41
2017-11-19T12:43:45.676Z,3.41
2017-11-19T12:44:45.665Z,4.12
2017-11-19T12:45:45.656Z,4.12
2017-11-19T12:46:45.649Z,3.33
2017-11-19T12:47:45.645Z,3.85
2017-11-19T12:48:45.645Z,3.83
2017-11-19T12:49:45.628Z,4.06
2017-11-19T12:50:45.636Z,3.98
2017-11-19T12:51:45.618Z,3.58
2017-11-19T12:52:45.617Z,3.57
2017-11-19T12:53:45.598Z,3.91
2017-11-19T12:54:45.612Z,3.60
2017-11-19T12:55:45.590Z,3.60
2017-11-19T12:56:46.442Z,3.74
2017-11-19T12:57:45.574Z,3.59
2017-11-19T12:58:45.571Z,3.39
2017-11-19T12:59:45.569Z,3.85
2017-11-19T13:00:45.554Z,4.29
2017-11-19T13:01:45.548Z,3.56
2017-11-19T13:02:45.536Z,3.55
2017-11-19T13:03:45.534Z,3.90
2017-11-19T13:04:45.559Z,3.76
2017-11-19T13:05:45.514Z,4.08
2017-11-19T13:06:45.507Z,3.57
2017-11-19T13:07:45.508Z,3.54
2017-11-19T13:08:45.505Z,3.69
2017-11-19T13:09:46.447Z,4.08
2017-11-19T13:10:45.483Z,3.18
2017-11-19T13:11:45.474Z,3.74
2017-11-19T13:12:45.463Z,3.57
2017-11-19T13:13:45.468Z,3.65
2017-11-19T13:14:45.453Z,4.15